Time;durP1;ratioP1;P1;durP2;ratioP2;P2;SDS_P1;SDS_P2;PMS_P1;PMS_P2;Temp;Humidity;BMP_temperature;BMP_pressure;BME280_temperature;BME280_humidity;BME280_pressure;Samples;Min_cycle;Max_cycle;Signal;HPM_P1;HPM_P2
2022/03/22 00:00:20;;;;;;;38.70;18.90;;;4.90;99.90;;;;;;5067150;28;20098;-80
2022/03/22 00:02:46;;;;;;;31.35;19.02;;;4.80;99.90;;;;;;5065068;28;20048;-80
2022/03/22 00:05:12;;;;;;;35.70;19.95;;;4.90;99.90;;;;;;5066312;28;20048;-81
2022/03/22 00:07:37;;;;;;;31.08;19.02;;;4.80;99.90;;;;;;5049222;28;20450;-79
2022/03/22 00:10:04;;;;;;;33.40;19.67;;;4.80;99.90;;;;;;5065688;28;20127;-80
2022/03/22 00:12:30;;;;;;;34.00;19.58;;;4.80;99.90;;;;;;5049389;28;20036;-80
2022/03/22 00:14:55;;;;;;;35.65;20.35;;;4.70;99.90;;;;;;5065436;28;20044;-80
2022/03/22 00:17:21;;;;;;;32.45;20.00;;;4.70;99.90;;;;;;5033474;28;20295;-80
2022/03/22 00:19:47;;;;;;;32.90;20.92;;;4.70;99.90;;;;;;5048272;28;20036;-80
2022/03/22 00:22:14;;;;;;;32.70;19.45;;;4.70;99.90;;;;;;5066216;28;20083;-80
2022/03/22 00:24:40;;;;;;;32.92;20.02;;;4.60;99.90;;;;;;5065297;28;20500;-80
2022/03/22 00:27:07;;;;;;;30.80;19.23;;;4.60;99.90;;;;;;5065628;28;20040;-80
2022/03/22 00:29:34;;;;;;;35.97;20.10;;;5.20;99.90;;;;;;5049903;28;20049;-80
2022/03/22 00:31:59;;;;;;;36.00;20.33;;;4.60;99.90;;;;;;5031735;28;20436;-80
2022/03/22 00:34:25;;;;;;;35.15;17.85;;;4.60;99.90;;;;;;5049051;28;20051;-80
2022/03/22 00:36:51;;;;;;;34.90;20.05;;;4.50;99.90;;;;;;5064274;28;20511;-80
2022/03/22 00:39:18;;;;;;;29.67;18.13;;;4.50;99.90;;;;;;5066268;28;20468;-80
2022/03/22 00:41:44;;;;;;;34.95;20.27;;;4.50;99.90;;;;;;5048714;28;20081;-80
2022/03/22 00:44:10;;;;;;;34.83;19.73;;;4.50;99.90;;;;;;5064737;28;20090;-80
2022/03/22 00:46:36;;;;;;;30.95;19.88;;;4.50;99.90;;;;;;5048670;28;20048;-80
2022/03/22 00:49:03;;;;;;;30.42;19.63;;;4.40;99.90;;;;;;5047564;28;20574;-80
2022/03/22 00:51:30;;;;;;;32.65;19.52;;;4.40;99.90;;;;;;5049090;28;20099;-80
2022/03/22 00:53:59;;;;;;;34.90;20.85;;;4.40;99.90;;;;;;5064532;28;20048;-80
2022/03/22 00:56:25;;;;;;;39.17;21.88;;;4.40;99.90;;;;;;5065501;28;20045;-80
2022/03/22 01:00:01;;;;;;;32.78;19.95;;;4.40;99.90;;;;;;5031618;28;20068;-79
2022/03/22 01:01:37;;;;;;;32.38;20.25;;;4.40;99.90;;;;;;5064302;28;20468;-80
2022/03/22 01:04:04;;;;;;;35.35;20.50;;;4.40;99.90;;;;;;5048646;28;20040;-80
2022/03/22 01:06:30;;;;;;;35.80;20.08;;;4.30;99.90;;;;;;5064355;28;20117;-80
2022/03/22 01:08:56;;;;;;;37.95;20.35;;;4.30;99.90;;;;;;5016039;28;20091;-80
2022/03/22 01:11:22;;;;;;;30.27;19.10;;;4.30;99.90;;;;;;5047607;28;20049;-80
2022/03/22 01:13:48;;;;;;;35.25;21.48;;;4.30;99.90;;;;;;5066603;28;20048;-80
2022/03/22 01:16:15;;;;;;;30.35;19.40;;;4.30;99.90;;;;;;5066457;28;20040;-80
2022/03/22 01:18:42;;;;;;;35.60;21.25;;;4.30;99.90;;;;;;5065687;28;20041;-80
2022/03/22 01:21:10;;;;;;;32.95;21.00;;;4.30;99.90;;;;;;5065500;28;20074;-81
2022/03/22 01:23:36;;;;;;;37.72;21.83;;;4.30;99.90;;;;;;5031038;28;20075;-80
2022/03/22 01:26:02;;;;;;;37.05;22.80;;;4.30;99.90;;;;;;5049468;28;20045;-80
2022/03/22 01:28:28;;;;;;;45.88;23.67;;;4.30;99.90;;;;;;5030778;28;20489;-80
2022/03/22 01:30:54;;;;;;;43.90;22.95;;;4.30;99.90;;;;;;5048035;28;20094;-80
2022/03/22 01:33:20;;;;;;;42.40;23.08;;;4.30;99.90;;;;;;5065043;28;20052;-80
2022/03/22 01:35:46;;;;;;;36.47;21.83;;;4.70;99.90;;;;;;5064148;28;20903;-80
2022/03/22 01:38:12;;;;;;;36.03;22.67;;;4.30;99.90;;;;;;5048294;28;20041;-80
2022/03/22 01:40:38;;;;;;;40.03;24.20;;;4.30;99.90;;;;;;5064162;28;20047;-80
2022/03/22 01:43:04;;;;;;;35.75;23.45;;;4.20;99.90;;;;;;5065028;28;20125;-81
2022/03/22 01:45:30;;;;;;;39.88;22.58;;;4.30;99.90;;;;;;5067492;28;20160;-80
2022/03/22 01:48:02;;;;;;;43.80;24.30;;;4.30;99.90;;;;;;5052711;28;20191;-80
2022/03/22 01:50:29;;;;;;;42.60;23.65;;;4.30;99.90;;;;;;5068541;28;20040;-80
2022/03/22 01:52:57;;;;;;;38.10;22.52;;;4.30;99.90;;;;;;5069144;28;20049;-80
2022/03/22 01:55:23;;;;;;;39.08;23.33;;;4.30;99.90;;;;;;5069519;28;20447;-80
2022/03/22 01:57:49;;;;;;;41.17;24.63;;;4.30;99.90;;;;;;5051324;28;20059;-80
2022/03/22 02:00:17;;;;;;;41.30;22.92;;;4.30;99.90;;;;;;5069081;28;20569;-80
2022/03/22 02:08:24;;;;;;;37.22;22.52;;;4.30;99.90;;;;;;5069247;28;20484;-80
2022/03/22 02:10:50;;;;;;;39.97;22.38;;;4.40;99.90;;;;;;5067681;28;20055;-81
2022/03/22 02:13:16;;;;;;;41.97;23.85;;;4.30;99.90;;;;;;5068588;28;20508;-80
2022/03/22 02:15:45;;;;;;;40.80;23.42;;;4.30;99.90;;;;;;5068051;28;20403;-80
2022/03/22 02:18:11;;;;;;;38.38;24.52;;;4.30;99.90;;;;;;5051380;28;20086;-80
2022/03/22 02:20:37;;;;;;;36.15;22.17;;;4.40;99.90;;;;;;5051698;28;20045;-80
2022/03/22 02:23:21;;;;;;;41.33;24.75;;;4.30;99.90;;;;;;5050611;28;20040;-80
2022/03/22 02:25:49;;;;;;;40.58;24.15;;;4.30;99.90;;;;;;5051954;28;20553;-80
2022/03/22 02:28:16;;;;;;;37.67;22.48;;;4.30;99.90;;;;;;5067207;28;20045;-80
2022/03/22 02:30:45;;;;;;;38.15;23.15;;;4.30;99.90;;;;;;5068066;28;20059;-80
2022/03/22 02:33:11;;;;;;;38.35;23.00;;;4.30;99.90;;;;;;5050914;28;20510;-80
2022/03/22 02:35:38;;;;;;;39.30;24.58;;;4.30;99.90;;;;;;5050253;28;20076;-80
2022/03/22 02:38:04;;;;;;;46.35;23.92;;;4.30;99.90;;;;;;5068042;28;20566;-80
2022/03/22 02:40:29;;;;;;;40.92;25.13;;;4.30;99.90;;;;;;5066808;28;20091;-80
2022/03/22 02:43:00;;;;;;;39.85;23.13;;;4.40;99.90;;;;;;5068188;28;20055;-80
2022/03/22 02:45:26;;;;;;;39.85;24.25;;;4.40;99.90;;;;;;5050930;28;20052;-80
2022/03/22 02:47:52;;;;;;;34.60;22.20;;;4.40;99.90;;;;;;5067591;28;20113;-80
2022/03/22 02:50:18;;;;;;;40.60;24.30;;;4.50;99.90;;;;;;5051837;28;20557;-81
2022/03/22 02:52:47;;;;;;;42.25;24.60;;;4.40;99.90;;;;;;5034377;28;20131;-81
2022/03/22 02:55:13;;;;;;;40.88;24.33;;;4.50;99.90;;;;;;5068041;28;20052;-81
2022/03/22 02:57:40;;;;;;;39.30;23.50;;;4.50;99.90;;;;;;5050045;28;20045;-80
2022/03/22 03:00:09;;;;;;;43.22;23.70;;;4.50;99.90;;;;;;5034719;28;20048;-80
2022/03/22 03:02:47;;;;;;;42.42;22.83;;;4.50;99.90;;;;;;5066806;28;20045;-80
2022/03/22 03:05:13;;;;;;;42.30;24.30;;;4.50;99.90;;;;;;5066924;28;20377;-80
2022/03/22 03:07:39;;;;;;;37.47;22.75;;;4.50;99.90;;;;;;5050594;28;20114;-80
2022/03/22 03:10:06;;;;;;;39.17;23.17;;;4.50;99.90;;;;;;5066124;28;20055;-80
2022/03/22 03:12:32;;;;;;;42.28;24.02;;;4.40;99.90;;;;;;5067913;28;20057;-80
2022/03/22 03:14:58;;;;;;;38.40;24.30;;;4.50;99.90;;;;;;5066392;28;20605;-80
2022/03/22 03:17:24;;;;;;;38.58;23.23;;;4.40;99.90;;;;;;5034179;28;20036;-80
2022/03/22 03:19:49;;;;;;;40.17;22.48;;;4.40;99.90;;;;;;5067310;28;20127;-80
2022/03/22 03:22:15;;;;;;;40.92;22.33;;;4.40;99.90;;;;;;5068348;28;20083;-80
2022/03/22 03:24:41;;;;;;;39.42;23.92;;;4.40;99.90;;;;;;5068094;28;20178;-80
2022/03/22 03:27:07;;;;;;;38.65;22.65;;;4.30;99.90;;;;;;5065787;28;20240;-80
2022/03/22 03:29:32;;;;;;;43.45;24.85;;;4.40;99.90;;;;;;5067743;28;20495;-80
2022/03/22 03:31:58;;;;;;;41.05;24.58;;;4.30;99.90;;;;;;5066168;28;20139;-79
2022/03/22 03:34:24;;;;;;;38.80;23.30;;;4.30;99.90;;;;;;5067521;28;20040;-80
2022/03/22 03:36:50;;;;;;;43.95;24.45;;;4.30;99.90;;;;;;5033028;28;20408;-79
2022/03/22 03:39:16;;;;;;;43.35;23.77;;;4.30;99.90;;;;;;5067267;28;20127;-80
2022/03/22 03:41:54;;;;;;;46.05;24.98;;;4.30;99.90;;;;;;5066909;28;20049;-79
2022/03/22 03:47:14;;;;;;;42.95;25.60;;;4.30;99.90;;;;;;5067015;28;20052;-79
2022/03/22 03:49:45;;;;;;;40.60;24.63;;;4.30;99.90;;;;;;5049367;28;20074;-79
2022/03/22 03:52:17;;;;;;;49.30;25.77;;;4.20;99.90;;;;;;5065985;28;20048;-80
2022/03/22 03:54:43;;;;;;;40.17;25.38;;;4.30;99.90;;;;;;5050492;28;20107;-80
2022/03/22 03:57:09;;;;;;;46.80;25.77;;;4.30;99.90;;;;;;5049099;28;20400;-80
2022/03/22 03:59:36;;;;;;;41.17;23.77;;;4.20;99.90;;;;;;5050710;28;20419;-80
2022/03/22 04:02:05;;;;;;;41.28;24.02;;;4.20;99.90;;;;;;5048523;28;20051;-80
2022/03/22 04:04:32;;;;;;;40.92;23.50;;;4.20;99.90;;;;;;5066547;28;20049;-79
2022/03/22 04:06:58;;;;;;;41.35;24.60;;;4.20;99.90;;;;;;5065515;28;20044;-79
2022/03/22 04:09:24;;;;;;;38.40;23.67;;;4.20;99.90;;;;;;5065623;28;20093;-81
2022/03/22 04:11:50;;;;;;;41.78;24.48;;;4.20;99.90;;;;;;5066441;28;20041;-80
2022/03/22 04:14:16;;;;;;;49.13;26.58;;;4.20;99.90;;;;;;5065071;28;20145;-80
2022/03/22 04:16:42;;;;;;;42.45;26.05;;;4.20;99.90;;;;;;5067995;28;20075;-80
2022/03/22 04:19:08;;;;;;;45.70;25.52;;;4.20;99.90;;;;;;5048156;28;20052;-80
2022/03/22 04:21:38;;;;;;;47.60;24.63;;;4.20;99.90;;;;;;5049749;28;20044;-80
2022/03/22 04:24:09;;;;;;;39.63;24.75;;;4.10;99.90;;;;;;5065002;28;20052;-80
2022/03/22 04:26:36;;;;;;;43.53;26.02;;;4.10;99.90;;;;;;5066408;28;20033;-80
2022/03/22 04:34:36;;;;;;;45.40;23.10;;;4.10;99.90;;;;;;5065993;28;20044;-80
2022/03/22 04:37:03;;;;;;;48.58;25.67;;;4.20;99.90;;;;;;5065547;28;20376;-80
2022/03/22 04:39:30;;;;;;;41.30;24.67;;;4.10;99.90;;;;;;5065260;28;20053;-79
2022/03/22 04:41:57;;;;;;;40.55;23.88;;;4.10;99.90;;;;;;5065681;28;20487;-80
2022/03/22 04:44:26;;;;;;;39.08;23.60;;;4.10;99.90;;;;;;5065467;28;20502;-80
2022/03/22 04:46:52;;;;;;;42.92;24.67;;;4.20;99.90;;;;;;5066028;28;20044;-80
2022/03/22 04:49:18;;;;;;;41.45;23.52;;;4.10;99.90;;;;;;5066224;28;20039;-80
2022/03/22 04:57:12;;;;;;;47.25;26.13;;;4.10;99.90;;;;;;5050060;28;20055;-80
2022/03/22 04:59:38;;;;;;;47.72;24.83;;;4.10;99.90;;;;;;5049483;28;20099;-80
2022/03/22 05:02:04;;;;;;;43.15;24.17;;;4.10;99.90;;;;;;5047529;28;20044;-81
2022/03/22 05:04:30;;;;;;;42.00;25.45;;;4.10;99.90;;;;;;5048561;28;20055;-80
2022/03/22 05:06:56;;;;;;;38.85;24.23;;;4.10;99.90;;;;;;5064617;28;20044;-79
2022/03/22 05:09:24;;;;;;;51.00;25.23;;;4.10;99.90;;;;;;5048376;28;20072;-79
2022/03/22 05:11:51;;;;;;;45.03;24.90;;;4.10;99.90;;;;;;5065226;28;20044;-80
2022/03/22 05:14:17;;;;;;;42.05;25.05;;;4.00;99.90;;;;;;5030726;28;20044;-80
2022/03/22 05:16:45;;;;;;;41.05;24.65;;;4.00;99.90;;;;;;5032648;28;20032;-79
2022/03/22 05:19:13;;;;;;;39.30;24.30;;;4.10;99.90;;;;;;5063552;28;20044;-80
2022/03/22 05:21:40;;;;;;;39.65;23.80;;;4.00;99.90;;;;;;5065891;28;20044;-80
2022/03/22 05:24:06;;;;;;;43.72;25.23;;;4.00;99.90;;;;;;5066117;28;20083;-79
2022/03/22 05:26:32;;;;;;;37.53;23.65;;;4.00;99.90;;;;;;5065744;28;20064;-79
2022/03/22 05:28:58;;;;;;;46.35;23.35;;;4.00;99.90;;;;;;5065119;28;20052;-80
2022/03/22 05:31:24;;;;;;;38.28;23.23;;;4.00;99.90;;;;;;5064651;28;20036;-80
2022/03/22 05:33:50;;;;;;;41.22;24.55;;;4.00;99.90;;;;;;5066654;28;20075;-80
2022/03/22 05:36:16;;;;;;;39.08;23.92;;;4.00;99.90;;;;;;5063599;28;20040;-80
2022/03/22 05:38:42;;;;;;;38.33;23.52;;;4.00;99.90;;;;;;5048430;28;20044;-80
2022/03/22 05:41:08;;;;;;;38.13;23.08;;;3.90;99.90;;;;;;5065927;28;20047;-80
2022/03/22 05:43:35;;;;;;;43.40;25.67;;;3.90;99.90;;;;;;5065618;28;20048;-80
2022/03/22 05:46:03;;;;;;;39.47;24.65;;;3.90;99.90;;;;;;5065258;28;20439;-80
2022/03/22 05:48:29;;;;;;;39.92;23.80;;;3.90;99.90;;;;;;5047547;28;20129;-81
2022/03/22 05:50:55;;;;;;;45.72;24.77;;;4.00;99.90;;;;;;5048824;28;20055;-81
2022/03/22 05:53:21;;;;;;;40.58;24.35;;;4.00;99.90;;;;;;5063616;28;20045;-81
2022/03/22 05:55:47;;;;;;;37.20;23.25;;;3.90;99.90;;;;;;5066246;28;20047;-81
2022/03/22 05:58:14;;;;;;;35.95;23.80;;;3.90;99.90;;;;;;5065677;28;20032;-81
2022/03/22 06:00:40;;;;;;;43.55;25.27;;;3.90;99.90;;;;;;5064308;28;20123;-80
2022/03/22 06:03:06;;;;;;;48.72;24.17;;;4.00;99.90;;;;;;5048012;28;20063;-80
2022/03/22 06:05:32;;;;;;;39.38;23.40;;;4.00;99.90;;;;;;5047045;28;20044;-79
2022/03/22 06:07:59;;;;;;;45.00;24.52;;;4.00;99.90;;;;;;5066227;28;20392;-80
2022/03/22 06:10:26;;;;;;;47.28;26.60;;;4.00;99.90;;;;;;5030569;28;20056;-79
2022/03/22 06:12:54;;;;;;;37.22;24.27;;;4.10;99.90;;;;;;5048060;28;20126;-80
2022/03/22 06:15:31;;;;;;;42.88;25.25;;;4.10;99.90;;;;;;5063886;28;20041;-79
2022/03/22 06:18:04;;;;;;;45.05;25.52;;;4.20;99.90;;;;;;5063448;28;20087;-79
2022/03/22 06:20:35;;;;;;;47.95;25.90;;;4.30;99.90;;;;;;5064860;28;20055;-78
2022/03/22 06:23:07;;;;;;;46.45;26.58;;;4.30;99.90;;;;;;5063154;28;20119;-78
2022/03/22 06:25:37;;;;;;;46.20;25.58;;;4.30;99.90;;;;;;5047968;28;20044;-78
2022/03/22 06:28:04;;;;;;;50.10;27.38;;;4.40;99.90;;;;;;5046998;28;20049;-79
2022/03/22 06:30:30;;;;;;;43.50;25.65;;;4.50;99.90;;;;;;5032878;28;20041;-78
2022/03/22 06:32:59;;;;;;;41.63;24.30;;;4.60;99.90;;;;;;5051861;28;20032;-79
2022/03/22 06:35:30;;;;;;;44.10;24.52;;;4.70;99.90;;;;;;5050400;28;20045;-78
2022/03/22 06:37:57;;;;;;;42.97;24.70;;;4.80;99.90;;;;;;5051737;28;20044;-79
2022/03/22 06:40:27;;;;;;;42.45;24.38;;;4.90;99.90;;;;;;5067118;28;20071;-80
2022/03/22 06:42:53;;;;;;;37.60;24.30;;;5.00;99.90;;;;;;5051889;28;20033;-78
2022/03/22 06:45:19;;;;;;;44.47;25.35;;;5.00;99.90;;;;;;5050958;28;20059;-79
2022/03/22 06:47:46;;;;;;;49.92;24.58;;;5.10;99.90;;;;;;5067374;28;20128;-80
2022/03/22 06:50:14;;;;;;;39.25;24.67;;;5.20;99.90;;;;;;5068085;28;20049;-80
2022/03/22 06:52:40;;;;;;;45.72;23.70;;;5.30;99.90;;;;;;5067776;28;20557;-78
2022/03/22 06:55:07;;;;;;;48.45;24.20;;;5.50;99.90;;;;;;5068188;28;20102;-80
2022/03/22 06:57:33;;;;;;;42.92;23.08;;;5.60;99.90;;;;;;5066614;28;20140;-78
2022/03/22 07:00:00;;;;;;;40.50;24.35;;;5.70;99.90;;;;;;5051487;28;20052;-78
2022/03/22 07:02:26;;;;;;;37.80;24.60;;;5.80;99.90;;;;;;5067028;28;20051;-78
2022/03/22 07:04:52;;;;;;;47.65;23.13;;;5.90;99.90;;;;;;5066725;28;20431;-78
2022/03/22 07:07:18;;;;;;;38.78;22.42;;;6.00;99.90;;;;;;5051348;28;20041;-78
2022/03/22 07:09:45;;;;;;;42.58;24.40;;;6.10;99.90;;;;;;5066206;28;20049;-78
2022/03/22 07:12:11;;;;;;;36.63;22.48;;;6.30;99.90;;;;;;5067937;28;20075;-78
2022/03/22 07:14:40;;;;;;;41.33;24.60;;;6.40;99.90;;;;;;5066599;28;20045;-78
2022/03/22 07:17:08;;;;;;;37.58;24.63;;;6.50;99.90;;;;;;5034846;28;20076;-78
2022/03/22 07:19:34;;;;;;;40.28;24.33;;;6.60;99.90;;;;;;5050656;28;20039;-78
2022/03/22 07:22:01;;;;;;;41.80;24.92;;;6.70;99.90;;;;;;5067095;28;20040;-78
2022/03/22 07:24:26;;;;;;;36.35;22.80;;;6.80;99.90;;;;;;5067070;28;20049;-78
2022/03/22 07:26:53;;;;;;;43.22;23.05;;;7.00;99.90;;;;;;5065904;28;20064;-78
2022/03/22 07:29:19;;;;;;;44.30;25.25;;;7.10;99.90;;;;;;5067918;28;20053;-78
2022/03/22 07:31:44;;;;;;;47.45;23.25;;;7.20;99.90;;;;;;5067698;28;20122;-78
2022/03/22 07:34:16;;;;;;;40.55;22.58;;;7.30;99.90;;;;;;5066937;28;20485;-78
2022/03/22 07:36:43;;;;;;;34.63;22.27;;;7.40;99.90;;;;;;5066780;28;20044;-78
2022/03/22 07:39:11;;;;;;;42.95;23.25;;;7.50;99.90;;;;;;5066253;28;20040;-78
2022/03/22 07:41:38;;;;;;;35.95;21.38;;;7.60;99.90;;;;;;5068044;28;20181;-78
2022/03/22 07:44:05;;;;;;;38.05;20.85;;;7.70;99.90;;;;;;5065075;28;20499;-78
2022/03/22 07:46:31;;;;;;;37.55;22.50;;;7.70;99.90;;;;;;5050348;28;20101;-79
2022/03/22 07:52:58;;;;;;;43.53;23.02;;;7.80;99.90;;;;;;5065605;28;20123;-79
2022/03/22 07:54:30;;;;;;;44.53;23.25;;;7.90;99.90;;;;;;5066885;28;20051;-78
2022/03/22 07:56:56;;;;;;;36.22;22.77;;;8.00;99.90;;;;;;5048863;28;20052;-78
2022/03/22 07:59:24;;;;;;;52.38;23.92;;;8.10;99.90;;;;;;5067164;28;20051;-78
2022/03/22 08:01:51;;;;;;;39.35;22.98;;;8.20;99.90;;;;;;5065321;28;20052;-79
2022/03/22 08:04:17;;;;;;;36.90;22.80;;;8.30;99.90;;;;;;5032988;28;20055;-78
2022/03/22 08:06:43;;;;;;;39.15;23.52;;;8.50;99.90;;;;;;5066509;28;20090;-79
2022/03/22 08:09:09;;;;;;;36.40;21.75;;;8.70;99.90;;;;;;5065212;28;20488;-79
2022/03/22 08:11:35;;;;;;;36.10;21.08;;;8.80;99.90;;;;;;5067032;28;20133;-79
2022/03/22 08:14:02;;;;;;;38.58;22.05;;;9.00;99.90;;;;;;5065184;28;20032;-79
2022/03/22 08:16:28;;;;;;;40.60;22.50;;;9.20;99.90;;;;;;5033733;28;20045;-79
2022/03/22 08:18:54;;;;;;;36.95;22.13;;;9.40;99.90;;;;;;5065501;28;20415;-79
2022/03/22 08:21:20;;;;;;;39.78;21.73;;;9.60;99.90;;;;;;5065995;28;20049;-79
2022/03/22 08:23:47;;;;;;;32.55;20.83;;;9.80;99.90;;;;;;5067047;28;20044;-79
2022/03/22 08:26:13;;;;;;;34.65;21.67;;;9.90;99.90;;;;;;5066637;28;20546;-79
2022/03/22 08:28:40;;;;;;;36.13;21.35;;;10.10;99.90;;;;;;5066016;28;20102;-79
2022/03/22 08:31:06;;;;;;;42.78;22.38;;;10.20;99.90;;;;;;5047765;28;20041;-79
2022/03/22 08:33:32;;;;;;;40.97;21.70;;;10.20;99.90;;;;;;5066159;28;20051;-79
2022/03/22 08:35:58;;;;;;;30.65;20.27;;;10.30;99.90;;;;;;5065104;28;20044;-79
2022/03/22 08:38:24;;;;;;;40.58;21.23;;;10.30;99.90;;;;;;5065682;28;20507;-79
2022/03/22 08:40:52;;;;;;;43.20;20.77;;;10.40;99.90;;;;;;5048947;28;20118;-79
2022/03/22 08:43:22;;;;;;;34.63;21.13;;;10.40;99.90;;;;;;5048271;28;20150;-79
2022/03/22 08:45:47;;;;;;;39.92;21.02;;;10.50;99.90;;;;;;5066522;28;20098;-79
2022/03/22 08:48:13;;;;;;;34.35;19.95;;;10.60;99.90;;;;;;5047947;28;20045;-78
2022/03/22 08:50:45;;;;;;;32.38;19.55;;;10.70;99.90;;;;;;5066047;28;20059;-79
2022/03/22 08:53:13;;;;;;;29.55;19.65;;;10.80;99.90;;;;;;5047026;28;20090;-77
2022/03/22 08:55:39;;;;;;;38.38;19.63;;;11.00;99.90;;;;;;5065463;28;20040;-78
2022/03/22 08:58:05;;;;;;;37.13;21.10;;;11.20;99.90;;;;;;5065009;28;20510;-77
2022/03/22 09:00:35;;;;;;;36.30;20.63;;;11.40;99.90;;;;;;5031626;28;20404;-79
2022/03/22 09:03:02;;;;;;;30.15;19.40;;;11.70;99.90;;;;;;5065845;28;20048;-79
2022/03/22 09:08:13;;;;;;;31.73;19.77;;;12.20;99.90;;;;;;5065357;28;20514;-79
2022/03/22 09:10:39;;;;;;;31.02;19.40;;;12.50;99.90;;;;;;5047975;28;20156;-79
2022/03/22 09:13:06;;;;;;;33.38;19.42;;;12.80;99.90;;;;;;5064607;28;20044;-79
2022/03/22 09:15:36;;;;;;;33.40;19.88;;;13.10;99.90;;;;;;5065265;28;20064;-79
2022/03/22 09:18:02;;;;;;;35.10;19.80;;;13.20;99.90;;;;;;5064274;28;20089;-80
2022/03/22 09:20:32;;;;;;;28.35;19.52;;;13.40;99.90;;;;;;5066133;28;20041;-80
2022/03/22 09:23:00;;;;;;;32.63;20.10;;;13.50;99.90;;;;;;5047848;28;20133;-79
2022/03/22 09:25:30;;;;;;;31.40;20.15;;;13.70;99.90;;;;;;5064803;28;20097;-79
2022/03/22 09:27:57;;;;;;;32.92;20.25;;;13.80;99.90;;;;;;5047406;28;20053;-79
2022/03/22 09:30:24;;;;;;;33.38;20.05;;;13.90;99.90;;;;;;5063872;28;20056;-79
2022/03/22 09:32:50;;;;;;;32.85;19.95;;;14.00;99.90;;;;;;5048835;28;20055;-80
2022/03/22 09:35:19;;;;;;;30.52;20.88;;;14.20;99.90;;;;;;5030545;28;20131;-80
2022/03/22 09:37:46;;;;;;;33.95;19.75;;;14.30;99.90;;;;;;5065200;28;20171;-81
2022/03/22 09:40:14;;;;;;;28.83;19.05;;;14.40;99.40;;;;;;5030884;28;20472;-80
2022/03/22 09:42:45;;;;;;;28.17;18.55;;;14.60;98.70;;;;;;5048208;28;20037;-80
2022/03/22 09:45:18;;;;;;;35.30;19.70;;;14.80;97.50;;;;;;5048782;28;20036;-79
2022/03/22 09:47:45;;;;;;;33.72;20.90;;;15.00;96.00;;;;;;5046863;28;20037;-80
2022/03/22 09:50:13;;;;;;;33.28;18.77;;;15.20;94.70;;;;;;5048398;28;20040;-80
2022/03/22 09:52:39;;;;;;;33.53;20.17;;;15.40;93.80;;;;;;5063680;28;20051;-80
2022/03/22 09:55:08;;;;;;;26.88;18.42;;;15.50;93.10;;;;;;5048421;28;20047;-80
2022/03/22 09:57:36;;;;;;;30.17;18.83;;;15.60;91.90;;;;;;5047511;28;20506;-80
2022/03/22 10:00:03;;;;;;;30.55;17.73;;;15.80;90.70;;;;;;5064383;28;20048;-80
2022/03/22 10:02:34;;;;;;;29.42;18.23;;;15.90;89.20;;;;;;5065032;28;20131;-80
2022/03/22 10:05:00;;;;;;;24.63;17.55;;;16.00;83.20;;;;;;5047694;28;20048;-78
2022/03/22 10:07:29;;;;;;;31.25;18.73;;;16.10;84.30;;;;;;5069468;28;20036;-78
2022/03/22 10:09:59;;;;;;;31.73;18.42;;;16.30;84.00;;;;;;5051353;28;20416;-78
2022/03/22 10:12:27;;;;;;;25.23;17.55;;;16.40;80.90;;;;;;5068593;28;20051;-78
2022/03/22 10:14:53;;;;;;;31.95;19.25;;;16.50;80.60;;;;;;5068019;28;20090;-78
2022/03/22 10:17:19;;;;;;;26.55;17.60;;;16.70;79.30;;;;;;5067926;28;20052;-78
2022/03/22 10:19:48;;;;;;;26.80;17.48;;;16.80;77.20;;;;;;5051904;28;20080;-78
2022/03/22 10:22:15;;;;;;;27.13;18.13;;;17.00;76.40;;;;;;5050620;28;20449;-77
2022/03/22 10:24:45;;;;;;;29.70;17.13;;;17.20;74.90;;;;;;5052900;28;20499;-77
2022/03/22 10:27:29;;;;;;;25.98;15.93;;;17.30;73.20;;;;;;5067589;28;20106;-78
2022/03/22 10:30:00;;;;;;;32.80;17.02;;;17.40;69.80;;;;;;5051206;28;20055;-78
2022/03/22 10:32:35;;;;;;;27.10;17.00;;;17.50;70.90;;;;;;5051536;28;20036;-77
2022/03/22 10:35:14;;;;;;;28.50;16.83;;;17.60;67.70;;;;;;5051220;28;20044;-77
2022/03/22 10:37:45;;;;;;;27.63;16.27;;;17.60;66.90;;;;;;5052314;28;20095;-78
2022/03/22 10:40:32;;;;;;;28.90;16.73;;;17.60;67.60;;;;;;5034486;28;20062;-78
2022/03/22 10:43:06;;;;;;;24.67;15.02;;;17.60;65.10;;;;;;5050807;28;20659;-78
2022/03/22 10:45:54;;;;;;;27.25;15.65;;;17.70;65.80;;;;;;5051357;28;20041;-77
2022/03/22 10:48:23;;;;;;;26.25;16.02;;;17.70;63.60;;;;;;5067301;28;20048;-77
2022/03/22 10:50:50;;;;;;;27.75;16.35;;;17.80;66.50;;;;;;5051414;28;20222;-77
2022/03/22 10:53:21;;;;;;;29.27;15.25;;;17.90;65.70;;;;;;5067043;28;20046;-77
2022/03/22 10:55:47;;;;;;;28.95;15.10;;;18.00;64.20;;;;;;5050597;28;20051;-77
2022/03/22 10:58:15;;;;;;;24.05;14.52;;;18.10;63.80;;;;;;5067758;28;20051;-78
2022/03/22 11:00:43;;;;;;;27.42;14.57;;;18.20;63.10;;;;;;5067651;28;20091;-77
2022/03/22 11:03:11;;;;;;;24.65;14.52;;;18.30;62.70;;;;;;5068273;28;20052;-77
2022/03/22 11:05:40;;;;;;;26.30;15.85;;;18.30;62.00;;;;;;5066389;28;20401;-77
2022/03/22 11:08:07;;;;;;;25.30;14.90;;;18.30;61.10;;;;;;5067851;28;20063;-78
2022/03/22 11:10:32;;;;;;;24.65;16.50;;;18.30;61.10;;;;;;5050181;28;20051;-78
2022/03/22 11:12:59;;;;;;;23.48;14.60;;;18.40;61.20;;;;;;5050200;28;20052;-79
2022/03/22 11:15:35;;;;;;;24.08;15.50;;;18.50;60.80;;;;;;5068092;28;20441;-79
2022/03/22 11:18:02;;;;;;;25.27;15.73;;;18.50;59.80;;;;;;5048314;28;20098;-79
2022/03/22 11:20:28;;;;;;;26.38;15.35;;;18.60;60.50;;;;;;5034794;28;20044;-80
2022/03/22 11:22:56;;;;;;;25.85;15.90;;;18.80;60.40;;;;;;5033288;28;20571;-79
2022/03/22 11:25:36;;;;;;;23.65;15.63;;;18.90;60.30;;;;;;5068034;28;20045;-79
2022/03/22 11:28:05;;;;;;;26.20;16.83;;;19.10;58.60;;;;;;5066890;28;20098;-79
2022/03/22 11:30:34;;;;;;;27.95;16.35;;;19.20;58.70;;;;;;5065660;28;20063;-79
2022/03/22 11:36:14;;;;;;;27.45;17.08;;;19.30;57.90;;;;;;5037827;28;20484;-78
2022/03/22 11:38:47;;;;;;;28.13;16.17;;;19.40;54.70;;;;;;5046535;28;20084;-78
2022/03/22 11:44:20;;;;;;;25.50;16.20;;;19.30;56.60;;;;;;5066582;28;20048;-78
2022/03/22 11:46:59;;;;;;;26.02;16.73;;;19.30;56.60;;;;;;5050222;28;20396;-78
2022/03/22 11:49:25;;;;;;;33.17;17.48;;;19.30;56.80;;;;;;5066928;28;20577;-78
2022/03/22 11:52:10;;;;;;;28.65;16.85;;;19.40;57.00;;;;;;5065397;28;20497;-78
2022/03/22 11:54:37;;;;;;;33.90;17.30;;;19.50;55.60;;;;;;5050208;28;20128;-78
2022/03/22 11:57:04;;;;;;;28.63;17.15;;;19.60;56.30;;;;;;5048931;28;20056;-78
2022/03/22 11:59:46;;;;;;;24.55;16.52;;;19.70;56.40;;;;;;5066047;28;20040;-78
2022/03/22 12:02:18;;;;;;;33.30;17.58;;;19.90;55.20;;;;;;5049971;28;20086;-78
2022/03/22 12:04:53;;;;;;;26.65;15.98;;;19.90;55.30;;;;;;5066592;28;20041;-78
2022/03/22 12:07:32;;;;;;;25.23;15.43;;;20.10;53.90;;;;;;5068299;28;20044;-79
2022/03/22 12:10:07;;;;;;;30.30;16.48;;;20.10;53.10;;;;;;5065727;28;20041;-78
2022/03/22 12:12:34;;;;;;;26.90;16.27;;;20.10;52.70;;;;;;5067010;28;20544;-78
2022/03/22 12:15:03;;;;;;;26.27;15.23;;;20.20;53.70;;;;;;5067613;28;20049;-78
2022/03/22 12:17:29;;;;;;;29.58;16.05;;;20.20;53.00;;;;;;5066480;28;20041;-78
2022/03/22 12:20:00;;;;;;;27.45;16.45;;;20.20;52.90;;;;;;5066976;28;20403;-78
2022/03/22 12:22:27;;;;;;;24.00;15.27;;;20.30;52.60;;;;;;5066329;28;20118;-78
2022/03/22 12:24:56;;;;;;;24.92;14.70;;;20.30;53.00;;;;;;5067760;28;20075;-79
2022/03/22 12:27:23;;;;;;;27.33;16.17;;;20.40;52.60;;;;;;5065027;28;20051;-78
2022/03/22 12:29:48;;;;;;;28.35;15.65;;;20.40;52.50;;;;;;5066974;28;20222;-78
2022/03/22 12:32:16;;;;;;;25.73;16.23;;;20.40;51.90;;;;;;5066120;28;20229;-78
2022/03/22 12:34:43;;;;;;;29.42;15.50;;;20.50;51.80;;;;;;5064683;28;20098;-78
2022/03/22 12:37:11;;;;;;;25.15;15.38;;;20.60;51.90;;;;;;5068404;28;20136;-79
2022/03/22 12:39:38;;;;;;;29.50;16.45;;;20.60;51.60;;;;;;5064740;28;20060;-78
2022/03/22 12:42:05;;;;;;;25.25;15.75;;;20.70;51.60;;;;;;5067881;28;20033;-79
2022/03/22 12:44:31;;;;;;;27.98;15.30;;;20.70;51.10;;;;;;5067227;28;20044;-80
2022/03/22 12:46:57;;;;;;;28.02;15.65;;;20.70;50.90;;;;;;5067555;28;20433;-79
2022/03/22 12:49:24;;;;;;;30.55;15.38;;;20.80;51.20;;;;;;5067701;28;20037;-78
2022/03/22 12:51:50;;;;;;;28.73;16.10;;;20.80;51.10;;;;;;5066239;28;20106;-79
2022/03/22 12:54:17;;;;;;;24.52;14.15;;;21.00;50.90;;;;;;5069043;28;20450;-79
2022/03/22 12:56:48;;;;;;;25.83;13.65;;;20.50;49.90;;;;;;5067316;28;20060;-80
2022/03/22 12:59:23;;;;;;;24.08;14.23;;;21.00;49.10;;;;;;5067198;28;20106;-79
2022/03/22 13:01:59;;;;;;;25.08;14.07;;;21.00;48.70;;;;;;5066711;28;20091;-79
2022/03/22 13:04:28;;;;;;;25.35;14.73;;;21.00;48.90;;;;;;5067504;28;20044;-80
2022/03/22 13:07:01;;;;;;;24.58;15.13;;;21.10;49.10;;;;;;5067635;28;20044;-79